sensor_id;sensor_type;location;lat;lon;timestamp;P1;durP1;ratioP1;P2;durP2;ratioP2
7747;SDS011;3918;42.564;23.164;2023-08-12T04:03:16;30.38;;;28.48;;
7747;SDS011;3918;42.564;23.164;2023-08-12T04:05:49;32.70;;;30.02;;
7747;SDS011;3918;42.564;23.164;2023-08-12T04:08:17;32.45;;;30.50;;
7747;SDS011;3918;42.564;23.164;2023-08-12T04:10:45;29.85;;;28.05;;
7747;SDS011;3918;42.564;23.164;2023-08-12T04:13:12;28.50;;;26.55;;
7747;SDS011;3918;42.564;23.164;2023-08-12T04:15:40;24.98;;;23.48;;
7747;SDS011;3918;42.564;23.164;2023-08-12T04:18:06;23.70;;;22.17;;
7747;SDS011;3918;42.564;23.164;2023-08-12T04:20:35;19.17;;;18.10;;
7747;SDS011;3918;42.564;23.164;2023-08-12T04:23:03;19.58;;;18.42;;
7747;SDS011;3918;42.564;23.164;2023-08-12T04:25:30;18.27;;;17.17;;
7747;SDS011;3918;42.564;23.164;2023-08-12T04:27:57;17.23;;;16.13;;
7747;SDS011;3918;42.564;23.164;2023-08-12T04:30:24;16.17;;;15.18;;
7747;SDS011;3918;42.564;23.164;2023-08-12T04:32:51;15.15;;;14.35;;
7747;SDS011;3918;42.564;23.164;2023-08-12T04:35:18;9.20;;;8.57;;
7747;SDS011;3918;42.564;23.164;2023-08-12T04:37:46;5.13;;;4.53;;
7747;SDS011;3918;42.564;23.164;2023-08-12T04:40:13;3.60;;;3.40;;
7747;SDS011;3918;42.564;23.164;2023-08-12T04:42:40;3.20;;;3.00;;
7747;SDS011;3918;42.564;23.164;2023-08-12T04:45:07;4.05;;;3.20;;
7747;SDS011;3918;42.564;23.164;2023-08-12T04:47:35;3.20;;;3.00;;
7747;SDS011;3918;42.564;23.164;2023-08-12T04:50:02;3.80;;;2.92;;
7747;SDS011;3918;42.564;23.164;2023-08-12T04:52:29;2.75;;;2.55;;
7747;SDS011;3918;42.564;23.164;2023-08-12T04:54:58;4.97;;;3.40;;
7747;SDS011;3918;42.564;23.164;2023-08-12T04:57:25;2.75;;;2.65;;
7747;SDS011;3918;42.564;23.164;2023-08-12T04:59:52;3.45;;;3.15;;
7747;SDS011;3918;42.564;23.164;2023-08-12T05:02:20;2.90;;;2.80;;
7747;SDS011;3918;42.564;23.164;2023-08-12T05:04:48;3.10;;;2.90;;
7747;SDS011;3918;42.564;23.164;2023-08-12T05:07:15;3.22;;;2.92;;
7747;SDS011;3918;42.564;23.164;2023-08-12T05:09:42;3.40;;;3.10;;
7747;SDS011;3918;42.564;23.164;2023-08-12T05:12:11;3.03;;;2.70;;
7747;SDS011;3918;42.564;23.164;2023-08-12T05:17:05;3.38;;;3.08;;
7747;SDS011;3918;42.564;23.164;2023-08-12T05:19:32;3.55;;;2.90;;
7747;SDS011;3918;42.564;23.164;2023-08-12T05:21:59;9.45;;;3.15;;
7747;SDS011;3918;42.564;23.164;2023-08-12T05:24:26;5.05;;;2.80;;
7747;SDS011;3918;42.564;23.164;2023-08-12T05:26:52;3.20;;;3.00;;
7747;SDS011;3918;42.564;23.164;2023-08-12T05:29:21;2.90;;;2.70;;
7747;SDS011;3918;42.564;23.164;2023-08-12T05:31:47;3.58;;;3.05;;
7747;SDS011;3918;42.564;23.164;2023-08-12T05:34:14;4.05;;;3.00;;
7747;SDS011;3918;42.564;23.164;2023-08-12T05:36:41;3.20;;;2.80;;
7747;SDS011;3918;42.564;23.164;2023-08-12T05:39:08;2.97;;;2.78;;
7747;SDS011;3918;42.564;23.164;2023-08-12T05:41:34;4.68;;;3.33;;
7747;SDS011;3918;42.564;23.164;2023-08-12T05:44:01;2.80;;;2.67;;
7747;SDS011;3918;42.564;23.164;2023-08-12T05:46:30;9.65;;;3.30;;
7747;SDS011;3918;42.564;23.164;2023-08-12T05:48:56;4.95;;;3.10;;
7747;SDS011;3918;42.564;23.164;2023-08-12T05:51:23;3.65;;;2.78;;
7747;SDS011;3918;42.564;23.164;2023-08-12T05:53:51;4.53;;;2.60;;
7747;SDS011;3918;42.564;23.164;2023-08-12T05:56:17;11.68;;;3.25;;
7747;SDS011;3918;42.564;23.164;2023-08-12T05:58:44;3.85;;;2.80;;
7747;SDS011;3918;42.564;23.164;2023-08-12T06:01:11;3.92;;;2.72;;
7747;SDS011;3918;42.564;23.164;2023-08-12T06:03:39;3.92;;;2.60;;
7747;SDS011;3918;42.564;23.164;2023-08-12T06:06:10;7.13;;;3.10;;
7747;SDS011;3918;42.564;23.164;2023-08-12T06:08:37;3.27;;;3.07;;
7747;SDS011;3918;42.564;23.164;2023-08-12T06:11:04;3.13;;;2.83;;
7747;SDS011;3918;42.564;23.164;2023-08-12T06:13:31;3.03;;;2.83;;
7747;SDS011;3918;42.564;23.164;2023-08-12T06:15:57;4.40;;;2.95;;
7747;SDS011;3918;42.564;23.164;2023-08-12T06:18:24;2.97;;;2.78;;
7747;SDS011;3918;42.564;23.164;2023-08-12T06:20:52;3.60;;;3.10;;
7747;SDS011;3918;42.564;23.164;2023-08-12T06:23:19;4.18;;;2.85;;
7747;SDS011;3918;42.564;23.164;2023-08-12T06:25:46;5.00;;;2.75;;
7747;SDS011;3918;42.564;23.164;2023-08-12T06:28:13;4.13;;;3.03;;
7747;SDS011;3918;42.564;23.164;2023-08-12T06:30:39;3.03;;;2.83;;
7747;SDS011;3918;42.564;23.164;2023-08-12T06:33:06;3.83;;;3.03;;
7747;SDS011;3918;42.564;23.164;2023-08-12T06:35:33;23.90;;;3.90;;
7747;SDS011;3918;42.564;23.164;2023-08-12T06:38:01;4.00;;;2.75;;
7747;SDS011;3918;42.564;23.164;2023-08-12T06:40:28;3.25;;;2.95;;
7747;SDS011;3918;42.564;23.164;2023-08-12T06:42:55;3.90;;;3.00;;
7747;SDS011;3918;42.564;23.164;2023-08-12T06:45:22;9.60;;;3.30;;
7747;SDS011;3918;42.564;23.164;2023-08-12T06:47:49;3.20;;;2.72;;
7747;SDS011;3918;42.564;23.164;2023-08-12T06:50:16;4.22;;;2.90;;
7747;SDS011;3918;42.564;23.164;2023-08-12T06:52:43;2.80;;;2.60;;
7747;SDS011;3918;42.564;23.164;2023-08-12T06:55:11;2.58;;;2.47;;
7747;SDS011;3918;42.564;23.164;2023-08-12T06:57:38;4.70;;;3.03;;
7747;SDS011;3918;42.564;23.164;2023-08-12T07:00:05;5.68;;;2.85;;
7747;SDS011;3918;42.564;23.164;2023-08-12T07:02:33;4.40;;;2.40;;
7747;SDS011;3918;42.564;23.164;2023-08-12T07:04:59;2.83;;;2.70;;
7747;SDS011;3918;42.564;23.164;2023-08-12T07:07:26;3.50;;;2.70;;
7747;SDS011;3918;42.564;23.164;2023-08-12T07:09:53;3.00;;;2.80;;
7747;SDS011;3918;42.564;23.164;2023-08-12T07:12:21;7.45;;;2.65;;
7747;SDS011;3918;42.564;23.164;2023-08-12T07:14:48;3.47;;;2.75;;
7747;SDS011;3918;42.564;23.164;2023-08-12T07:17:15;3.38;;;2.50;;
7747;SDS011;3918;42.564;23.164;2023-08-12T07:19:41;4.18;;;2.33;;
7747;SDS011;3918;42.564;23.164;2023-08-12T07:22:08;7.72;;;2.58;;
7747;SDS011;3918;42.564;23.164;2023-08-12T07:24:35;6.10;;;2.55;;
7747;SDS011;3918;42.564;23.164;2023-08-12T07:27:02;2.78;;;2.58;;
7747;SDS011;3918;42.564;23.164;2023-08-12T07:29:30;2.58;;;2.30;;
7747;SDS011;3918;42.564;23.164;2023-08-12T07:31:57;2.75;;;2.55;;
7747;SDS011;3918;42.564;23.164;2023-08-12T07:34:24;4.55;;;2.67;;
7747;SDS011;3918;42.564;23.164;2023-08-12T07:36:51;2.80;;;2.60;;
7747;SDS011;3918;42.564;23.164;2023-08-12T07:39:17;2.67;;;2.47;;
7747;SDS011;3918;42.564;23.164;2023-08-12T07:41:44;4.50;;;2.80;;
7747;SDS011;3918;42.564;23.164;2023-08-12T07:44:11;3.17;;;2.80;;
7747;SDS011;3918;42.564;23.164;2023-08-12T07:46:39;6.97;;;2.70;;
7747;SDS011;3918;42.564;23.164;2023-08-12T07:49:06;2.88;;;2.40;;
7747;SDS011;3918;42.564;23.164;2023-08-12T07:51:33;3.00;;;2.70;;
7747;SDS011;3918;42.564;23.164;2023-08-12T07:54:00;3.58;;;2.88;;
7747;SDS011;3918;42.564;23.164;2023-08-12T07:56:26;2.75;;;2.53;;
7747;SDS011;3918;42.564;23.164;2023-08-12T07:58:53;2.90;;;2.60;;
7747;SDS011;3918;42.564;23.164;2023-08-12T08:01:20;5.78;;;2.97;;
7747;SDS011;3918;42.564;23.164;2023-08-12T08:03:48;2.65;;;2.45;;
7747;SDS011;3918;42.564;23.164;2023-08-12T08:06:14;3.00;;;2.80;;
7747;SDS011;3918;42.564;23.164;2023-08-12T08:08:41;7.65;;;2.40;;
7747;SDS011;3918;42.564;23.164;2023-08-12T08:11:08;6.75;;;2.83;;
7747;SDS011;3918;42.564;23.164;2023-08-12T08:13:35;2.97;;;2.78;;
7747;SDS011;3918;42.564;23.164;2023-08-12T08:16:01;2.53;;;2.42;;
7747;SDS011;3918;42.564;23.164;2023-08-12T08:18:28;6.70;;;2.67;;
7747;SDS011;3918;42.564;23.164;2023-08-12T08:20:56;14.07;;;3.28;;
7747;SDS011;3918;42.564;23.164;2023-08-12T08:23:23;3.60;;;2.90;;
7747;SDS011;3918;42.564;23.164;2023-08-12T08:25:50;22.15;;;3.83;;
7747;SDS011;3918;42.564;23.164;2023-08-12T08:28:17;5.40;;;3.10;;
7747;SDS011;3918;42.564;23.164;2023-08-12T08:30:44;3.08;;;2.88;;
7747;SDS011;3918;42.564;23.164;2023-08-12T08:33:11;3.15;;;2.92;;
7747;SDS011;3918;42.564;23.164;2023-08-12T08:35:37;6.10;;;3.05;;
7747;SDS011;3918;42.564;23.164;2023-08-12T08:38:06;3.20;;;2.90;;
7747;SDS011;3918;42.564;23.164;2023-08-12T08:40:32;3.03;;;2.65;;
7747;SDS011;3918;42.564;23.164;2023-08-12T08:43:00;3.35;;;3.05;;
7747;SDS011;3918;42.564;23.164;2023-08-12T08:45:29;2.88;;;2.60;;
7747;SDS011;3918;42.564;23.164;2023-08-12T08:47:59;4.45;;;2.80;;
7747;SDS011;3918;42.564;23.164;2023-08-12T08:50:26;2.83;;;2.63;;
7747;SDS011;3918;42.564;23.164;2023-08-12T08:52:53;2.88;;;2.70;;
7747;SDS011;3918;42.564;23.164;2023-08-12T08:55:24;2.80;;;2.70;;
7747;SDS011;3918;42.564;23.164;2023-08-12T08:57:50;3.17;;;2.78;;
7747;SDS011;3918;42.564;23.164;2023-08-12T09:00:18;3.00;;;2.67;;
7747;SDS011;3918;42.564;23.164;2023-08-12T09:02:45;2.78;;;2.60;;
7747;SDS011;3918;42.564;23.164;2023-08-12T09:05:14;3.25;;;2.95;;
7747;SDS011;3918;42.564;23.164;2023-08-12T09:07:42;3.50;;;2.63;;
7747;SDS011;3918;42.564;23.164;2023-08-12T09:10:09;4.95;;;2.90;;
7747;SDS011;3918;42.564;23.164;2023-08-12T09:12:38;2.85;;;2.58;;
7747;SDS011;3918;42.564;23.164;2023-08-12T09:15:05;3.13;;;2.92;;
7747;SDS011;3918;42.564;23.164;2023-08-12T09:17:32;4.13;;;2.70;;
7747;SDS011;3918;42.564;23.164;2023-08-12T09:19:59;3.17;;;2.88;;
7747;SDS011;3918;42.564;23.164;2023-08-12T09:22:28;3.00;;;2.72;;
7747;SDS011;3918;42.564;23.164;2023-08-12T09:24:56;6.25;;;3.10;;
7747;SDS011;3918;42.564;23.164;2023-08-12T09:27:23;3.60;;;3.30;;
7747;SDS011;3918;42.564;23.164;2023-08-12T09:29:51;13.63;;;3.63;;
7747;SDS011;3918;42.564;23.164;2023-08-12T09:32:22;4.05;;;3.00;;
7747;SDS011;3918;42.564;23.164;2023-08-12T09:34:50;4.45;;;3.20;;
7747;SDS011;3918;42.564;23.164;2023-08-12T09:37:18;6.03;;;3.40;;
7747;SDS011;3918;42.564;23.164;2023-08-12T09:39:46;4.75;;;3.17;;
7747;SDS011;3918;42.564;23.164;2023-08-12T09:42:14;3.35;;;3.15;;
7747;SDS011;3918;42.564;23.164;2023-08-12T09:44:41;4.68;;;3.35;;
7747;SDS011;3918;42.564;23.164;2023-08-12T09:47:10;3.60;;;3.30;;
7747;SDS011;3918;42.564;23.164;2023-08-12T09:49:38;3.97;;;3.15;;
7747;SDS011;3918;42.564;23.164;2023-08-12T09:52:05;3.40;;;3.10;;
7747;SDS011;3918;42.564;23.164;2023-08-12T09:54:33;4.43;;;2.92;;
7747;SDS011;3918;42.564;23.164;2023-08-12T09:57:01;6.47;;;2.90;;
7747;SDS011;3918;42.564;23.164;2023-08-12T09:59:34;5.30;;;2.90;;
7747;SDS011;3918;42.564;23.164;2023-08-12T10:02:02;43.17;;;4.50;;
7747;SDS011;3918;42.564;23.164;2023-08-12T10:04:35;6.35;;;2.85;;
7747;SDS011;3918;42.564;23.164;2023-08-12T10:07:05;2.72;;;2.63;;
7747;SDS011;3918;42.564;23.164;2023-08-12T10:09:32;4.75;;;3.17;;
7747;SDS011;3918;42.564;23.164;2023-08-12T10:12:01;5.67;;;2.77;;
7747;SDS011;3918;42.564;23.164;2023-08-12T10:14:28;10.63;;;2.95;;
7747;SDS011;3918;42.564;23.164;2023-08-12T10:16:55;10.02;;;3.10;;
7747;SDS011;3918;42.564;23.164;2023-08-12T10:19:24;4.40;;;2.60;;
7747;SDS011;3918;42.564;23.164;2023-08-12T10:21:54;4.53;;;2.53;;
7747;SDS011;3918;42.564;23.164;2023-08-12T10:24:23;8.95;;;2.95;;
7747;SDS011;3918;42.564;23.164;2023-08-12T10:26:51;3.28;;;3.00;;
7747;SDS011;3918;42.564;23.164;2023-08-12T10:29:18;6.30;;;2.63;;
7747;SDS011;3918;42.564;23.164;2023-08-12T10:31:45;4.28;;;2.63;;
7747;SDS011;3918;42.564;23.164;2023-08-12T10:34:19;4.80;;;2.80;;
7747;SDS011;3918;42.564;23.164;2023-08-12T10:36:47;3.63;;;2.75;;
7747;SDS011;3918;42.564;23.164;2023-08-12T10:39:15;3.15;;;2.67;;
7747;SDS011;3918;42.564;23.164;2023-08-12T10:41:49;4.43;;;2.92;;
7747;SDS011;3918;42.564;23.164;2023-08-12T10:44:17;3.17;;;2.70;;
7747;SDS011;3918;42.564;23.164;2023-08-12T10:46:49;2.63;;;2.42;;
7747;SDS011;3918;42.564;23.164;2023-08-12T10:49:18;5.65;;;2.70;;
7747;SDS011;3918;42.564;23.164;2023-08-12T10:51:46;18.00;;;3.13;;
7747;SDS011;3918;42.564;23.164;2023-08-12T10:54:16;1.90;;;1.80;;
7747;SDS011;3918;42.564;23.164;2023-08-12T10:59:53;2.42;;;2.22;;
7747;SDS011;3918;42.564;23.164;2023-08-12T11:02:30;3.33;;;2.38;;
7747;SDS011;3918;42.564;23.164;2023-08-12T11:05:00;8.18;;;2.55;;
7747;SDS011;3918;42.564;23.164;2023-08-12T11:07:32;9.00;;;2.65;;
7747;SDS011;3918;42.564;23.164;2023-08-12T11:10:05;2.97;;;2.10;;
7747;SDS011;3918;42.564;23.164;2023-08-12T11:12:36;2.40;;;2.20;;
7747;SDS011;3918;42.564;23.164;2023-08-12T11:15:06;4.43;;;2.70;;
7747;SDS011;3918;42.564;23.164;2023-08-12T11:17:34;2.13;;;2.03;;
7747;SDS011;3918;42.564;23.164;2023-08-12T11:20:02;2.55;;;2.35;;
7747;SDS011;3918;42.564;23.164;2023-08-12T11:22:32;2.42;;;2.33;;
7747;SDS011;3918;42.564;23.164;2023-08-12T11:25:02;4.25;;;2.40;;
7747;SDS011;3918;42.564;23.164;2023-08-12T11:27:36;6.72;;;2.22;;
7747;SDS011;3918;42.564;23.164;2023-08-12T11:30:04;2.70;;;2.50;;
7747;SDS011;3918;42.564;23.164;2023-08-12T11:32:32;2.38;;;2.15;;
7747;SDS011;3918;42.564;23.164;2023-08-12T11:34:59;3.22;;;2.28;;
7747;SDS011;3918;42.564;23.164;2023-08-12T11:37:26;3.38;;;2.35;;
7747;SDS011;3918;42.564;23.164;2023-08-12T11:39:53;2.40;;;2.20;;
7747;SDS011;3918;42.564;23.164;2023-08-12T11:42:19;2.53;;;2.30;;
7747;SDS011;3918;42.564;23.164;2023-08-12T11:44:48;2.55;;;2.35;;
7747;SDS011;3918;42.564;23.164;2023-08-12T11:47:14;4.78;;;2.47;;
7747;SDS011;3918;42.564;23.164;2023-08-12T11:49:41;2.95;;;2.40;;
7747;SDS011;3918;42.564;23.164;2023-08-12T11:52:08;5.07;;;2.20;;
7747;SDS011;3918;42.564;23.164;2023-08-12T11:54:36;2.60;;;2.40;;
7747;SDS011;3918;42.564;23.164;2023-08-12T11:57:03;2.10;;;2.00;;
7747;SDS011;3918;42.564;23.164;2023-08-12T11:59:31;2.92;;;2.08;;
7747;SDS011;3918;42.564;23.164;2023-08-12T12:02:01;2.50;;;2.30;;
7747;SDS011;3918;42.564;23.164;2023-08-12T12:04:28;11.77;;;2.50;;
7747;SDS011;3918;42.564;23.164;2023-08-12T12:06:57;2.85;;;2.20;;
7747;SDS011;3918;42.564;23.164;2023-08-12T12:09:24;4.20;;;2.20;;
7747;SDS011;3918;42.564;23.164;2023-08-12T12:11:52;2.42;;;2.22;;
7747;SDS011;3918;42.564;23.164;2023-08-12T12:14:20;3.50;;;2.35;;
7747;SDS011;3918;42.564;23.164;2023-08-12T12:16:47;3.72;;;2.70;;
7747;SDS011;3918;42.564;23.164;2023-08-12T12:19:17;2.28;;;2.10;;
7747;SDS011;3918;42.564;23.164;2023-08-12T12:21:45;4.43;;;2.25;;
7747;SDS011;3918;42.564;23.164;2023-08-12T12:24:14;2.90;;;2.20;;
7747;SDS011;3918;42.564;23.164;2023-08-12T12:26:41;4.00;;;3.05;;
7747;SDS011;3918;42.564;23.164;2023-08-12T12:29:08;2.17;;;1.98;;
7747;SDS011;3918;42.564;23.164;2023-08-12T12:31:36;5.32;;;2.50;;
7747;SDS011;3918;42.564;23.164;2023-08-12T12:34:04;2.80;;;2.50;;
7747;SDS011;3918;42.564;23.164;2023-08-12T12:36:34;3.28;;;2.70;;
7747;SDS011;3918;42.564;23.164;2023-08-12T12:39:03;3.95;;;2.38;;
7747;SDS011;3918;42.564;23.164;2023-08-12T12:41:30;3.15;;;2.95;;
7747;SDS011;3918;42.564;23.164;2023-08-12T12:43:58;2.58;;;2.38;;
7747;SDS011;3918;42.564;23.164;2023-08-12T12:46:26;1.95;;;1.83;;
7747;SDS011;3918;42.564;23.164;2023-08-12T12:48:52;3.42;;;1.98;;
7747;SDS011;3918;42.564;23.164;2023-08-12T12:51:19;5.00;;;2.20;;
7747;SDS011;3918;42.564;23.164;2023-08-12T12:53:48;5.47;;;2.50;;
7747;SDS011;3918;42.564;23.164;2023-08-12T12:56:14;3.15;;;2.25;;
7747;SDS011;3918;42.564;23.164;2023-08-12T12:58:41;2.93;;;2.20;;
7747;SDS011;3918;42.564;23.164;2023-08-12T13:01:08;13.57;;;3.25;;
7747;SDS011;3918;42.564;23.164;2023-08-12T13:03:35;3.60;;;2.20;;
7747;SDS011;3918;42.564;23.164;2023-08-12T13:06:02;3.42;;;2.60;;
7747;SDS011;3918;42.564;23.164;2023-08-12T13:08:29;2.72;;;2.53;;
7747;SDS011;3918;42.564;23.164;2023-08-12T13:10:58;2.83;;;2.60;;
7747;SDS011;3918;42.564;23.164;2023-08-12T13:13:25;3.67;;;2.70;;
7747;SDS011;3918;42.564;23.164;2023-08-12T13:15:52;3.80;;;2.40;;
7747;SDS011;3918;42.564;23.164;2023-08-12T13:18:18;4.13;;;2.83;;
7747;SDS011;3918;42.564;23.164;2023-08-12T13:20:45;2.60;;;2.40;;
7747;SDS011;3918;42.564;23.164;2023-08-12T13:23:12;2.60;;;2.50;;
7747;SDS011;3918;42.564;23.164;2023-08-12T13:25:40;34.45;;;4.35;;
7747;SDS011;3918;42.564;23.164;2023-08-12T13:28:08;3.15;;;2.40;;
7747;SDS011;3918;42.564;23.164;2023-08-12T13:30:35;2.45;;;2.35;;
7747;SDS011;3918;42.564;23.164;2023-08-12T13:33:02;3.28;;;2.38;;
7747;SDS011;3918;42.564;23.164;2023-08-12T13:35:29;3.22;;;2.55;;
7747;SDS011;3918;42.564;23.164;2023-08-12T13:37:56;2.08;;;1.98;;
7747;SDS011;3918;42.564;23.164;2023-08-12T13:40:23;2.83;;;2.33;;
7747;SDS011;3918;42.564;23.164;2023-08-12T13:42:50;2.10;;;2.00;;
7747;SDS011;3918;42.564;23.164;2023-08-12T13:45:19;2.10;;;1.98;;
7747;SDS011;3918;42.564;23.164;2023-08-12T13:47:46;2.50;;;2.00;;
7747;SDS011;3918;42.564;23.164;2023-08-12T13:50:13;2.70;;;2.50;;
7747;SDS011;3918;42.564;23.164;2023-08-12T13:52:40;2.83;;;2.33;;
7747;SDS011;3918;42.564;23.164;2023-08-12T13:55:07;9.82;;;2.58;;
7747;SDS011;3918;42.564;23.164;2023-08-12T13:57:34;3.03;;;2.40;;
7747;SDS011;3918;42.564;23.164;2023-08-12T14:00:01;2.60;;;2.45;;
7747;SDS011;3918;42.564;23.164;2023-08-12T14:02:31;4.65;;;2.10;;
7747;SDS011;3918;42.564;23.164;2023-08-12T14:04:58;5.18;;;2.40;;
7747;SDS011;3918;42.564;23.164;2023-08-12T14:07:24;2.65;;;2.13;;
7747;SDS011;3918;42.564;23.164;2023-08-12T14:09:51;2.20;;;1.98;;
7747;SDS011;3918;42.564;23.164;2023-08-12T14:12:18;6.72;;;2.55;;
7747;SDS011;3918;42.564;23.164;2023-08-12T14:14:45;2.72;;;2.25;;
7747;SDS011;3918;42.564;23.164;2023-08-12T14:17:11;2.33;;;2.22;;
7747;SDS011;3918;42.564;23.164;2023-08-12T14:19:41;6.55;;;2.13;;
7747;SDS011;3918;42.564;23.164;2023-08-12T14:22:09;2.28;;;2.17;;
7747;SDS011;3918;42.564;23.164;2023-08-12T14:24:36;2.33;;;2.17;;
7747;SDS011;3918;42.564;23.164;2023-08-12T14:27:02;2.80;;;2.20;;
7747;SDS011;3918;42.564;23.164;2023-08-12T14:29:29;2.63;;;2.30;;
7747;SDS011;3918;42.564;23.164;2023-08-12T14:31:56;4.82;;;2.92;;
7747;SDS011;3918;42.564;23.164;2023-08-12T14:34:23;2.65;;;2.45;;
7747;SDS011;3918;42.564;23.164;2023-08-12T14:36:51;2.17;;;2.08;;
7747;SDS011;3918;42.564;23.164;2023-08-12T14:39:18;19.05;;;3.72;;
7747;SDS011;3918;42.564;23.164;2023-08-12T14:41:45;4.47;;;2.67;;
7747;SDS011;3918;42.564;23.164;2023-08-12T14:44:13;2.75;;;2.13;;
7747;SDS011;3918;42.564;23.164;2023-08-12T14:46:40;2.38;;;2.28;;
7747;SDS011;3918;42.564;23.164;2023-08-12T14:49:07;2.50;;;2.30;;
7747;SDS011;3918;42.564;23.164;2023-08-12T14:51:34;3.03;;;2.20;;
7747;SDS011;3918;42.564;23.164;2023-08-12T14:54:02;2.72;;;2.22;;
7747;SDS011;3918;42.564;23.164;2023-08-12T14:56:29;3.38;;;2.40;;
7747;SDS011;3918;42.564;23.164;2023-08-12T14:58:56;2.20;;;2.10;;
7747;SDS011;3918;42.564;23.164;2023-08-12T15:01:23;2.13;;;2.03;;
7747;SDS011;3918;42.564;23.164;2023-08-12T15:03:53;3.60;;;2.25;;
7747;SDS011;3918;42.564;23.164;2023-08-12T15:06:20;2.33;;;2.22;;
7747;SDS011;3918;42.564;23.164;2023-08-12T15:08:48;1.98;;;1.88;;
7747;SDS011;3918;42.564;23.164;2023-08-12T15:11:16;3.28;;;2.00;;
7747;SDS011;3918;42.564;23.164;2023-08-12T15:13:43;2.60;;;2.10;;
7747;SDS011;3918;42.564;23.164;2023-08-12T15:16:09;2.58;;;2.40;;
7747;SDS011;3918;42.564;23.164;2023-08-12T15:18:37;2.03;;;1.92;;
7747;SDS011;3918;42.564;23.164;2023-08-12T15:21:04;2.22;;;2.05;;
7747;SDS011;3918;42.564;23.164;2023-08-12T15:23:30;2.47;;;2.28;;
7747;SDS011;3918;42.564;23.164;2023-08-12T15:25:58;2.20;;;2.10;;
7747;SDS011;3918;42.564;23.164;2023-08-12T15:28:26;2.30;;;2.10;;
7747;SDS011;3918;42.564;23.164;2023-08-12T15:30:53;4.88;;;2.28;;
7747;SDS011;3918;42.564;23.164;2023-08-12T15:33:20;3.13;;;2.40;;
7747;SDS011;3918;42.564;23.164;2023-08-12T15:35:47;3.20;;;2.13;;
7747;SDS011;3918;42.564;23.164;2023-08-12T15:38:14;3.83;;;2.17;;
7747;SDS011;3918;42.564;23.164;2023-08-12T15:40:41;2.25;;;2.15;;
7747;SDS011;3918;42.564;23.164;2023-08-12T15:43:08;2.40;;;2.30;;
7747;SDS011;3918;42.564;23.164;2023-08-12T15:45:36;2.50;;;2.30;;
7747;SDS011;3918;42.564;23.164;2023-08-12T15:48:05;2.25;;;2.15;;
7747;SDS011;3918;42.564;23.164;2023-08-12T15:50:32;2.13;;;1.83;;
7747;SDS011;3918;42.564;23.164;2023-08-12T15:52:59;2.80;;;2.60;;
7747;SDS011;3918;42.564;23.164;2023-08-12T15:55:26;4.53;;;2.53;;
7747;SDS011;3918;42.564;23.164;2023-08-12T15:57:53;3.00;;;2.80;;
7747;SDS011;3918;42.564;23.164;2023-08-12T16:00:20;4.05;;;2.50;;
7747;SDS011;3918;42.564;23.164;2023-08-12T16:02:49;3.15;;;2.70;;
7747;SDS011;3918;42.564;23.164;2023-08-12T16:05:16;3.63;;;2.50;;
7747;SDS011;3918;42.564;23.164;2023-08-12T16:07:43;2.20;;;2.00;;
7747;SDS011;3918;42.564;23.164;2023-08-12T16:10:09;5.30;;;2.95;;
7747;SDS011;3918;42.564;23.164;2023-08-12T16:12:36;2.35;;;2.25;;
7747;SDS011;3918;42.564;23.164;2023-08-12T16:15:03;5.93;;;3.00;;
7747;SDS011;3918;42.564;23.164;2023-08-12T16:17:30;2.80;;;2.60;;
7747;SDS011;3918;42.564;23.164;2023-08-12T16:19:58;2.90;;;2.70;;
7747;SDS011;3918;42.564;23.164;2023-08-12T16:22:25;3.55;;;2.65;;
7747;SDS011;3918;42.564;23.164;2023-08-12T16:24:52;3.10;;;2.55;;
7747;SDS011;3918;42.564;23.164;2023-08-12T16:27:19;3.60;;;2.80;;
7747;SDS011;3918;42.564;23.164;2023-08-12T16:29:46;2.55;;;2.35;;
7747;SDS011;3918;42.564;23.164;2023-08-12T16:32:12;2.60;;;2.38;;
7747;SDS011;3918;42.564;23.164;2023-08-12T16:34:39;2.35;;;2.15;;
7747;SDS011;3918;42.564;23.164;2023-08-12T16:37:07;2.50;;;2.30;;
7747;SDS011;3918;42.564;23.164;2023-08-12T16:39:34;2.40;;;2.20;;
7747;SDS011;3918;42.564;23.164;2023-08-12T16:42:01;2.47;;;2.28;;
7747;SDS011;3918;42.564;23.164;2023-08-12T16:44:28;2.75;;;2.40;;
7747;SDS011;3918;42.564;23.164;2023-08-12T16:46:55;2.25;;;2.13;;
7747;SDS011;3918;42.564;23.164;2023-08-12T16:49:22;2.97;;;2.38;;
7747;SDS011;3918;42.564;23.164;2023-08-12T16:51:49;2.80;;;2.60;;
7747;SDS011;3918;42.564;23.164;2023-08-12T16:54:17;2.47;;;2.28;;
7747;SDS011;3918;42.564;23.164;2023-08-12T16:56:43;3.22;;;2.30;;
7747;SDS011;3918;42.564;23.164;2023-08-12T16:59:10;2.58;;;2.47;;
7747;SDS011;3918;42.564;23.164;2023-08-12T17:01:37;2.15;;;2.03;;
7747;SDS011;3918;42.564;23.164;2023-08-12T17:04:04;3.25;;;2.75;;
7747;SDS011;3918;42.564;23.164;2023-08-12T17:06:36;2.58;;;2.45;;
7747;SDS011;3918;42.564;23.164;2023-08-12T17:09:03;2.67;;;2.20;;
7747;SDS011;3918;42.564;23.164;2023-08-12T17:11:32;2.58;;;2.22;;
7747;SDS011;3918;42.564;23.164;2023-08-12T17:13:59;2.70;;;2.50;;
7747;SDS011;3918;42.564;23.164;2023-08-12T17:16:25;1.80;;;1.70;;
7747;SDS011;3918;42.564;23.164;2023-08-12T17:18:52;2.53;;;2.33;;
7747;SDS011;3918;42.564;23.164;2023-08-12T17:21:19;3.40;;;2.22;;
7747;SDS011;3918;42.564;23.164;2023-08-12T17:23:45;2.45;;;2.20;;
7747;SDS011;3918;42.564;23.164;2023-08-12T17:26:12;2.10;;;2.00;;
7747;SDS011;3918;42.564;23.164;2023-08-12T17:28:41;3.83;;;2.30;;
7747;SDS011;3918;42.564;23.164;2023-08-12T17:31:07;2.35;;;2.15;;
7747;SDS011;3918;42.564;23.164;2023-08-12T17:33:34;2.60;;;2.40;;
7747;SDS011;3918;42.564;23.164;2023-08-12T17:36:01;2.40;;;2.30;;
7747;SDS011;3918;42.564;23.164;2023-08-12T17:38:28;3.50;;;2.40;;
7747;SDS011;3918;42.564;23.164;2023-08-12T17:40:55;2.55;;;2.45;;
7747;SDS011;3918;42.564;23.164;2023-08-12T17:43:22;3.85;;;2.05;;
7747;SDS011;3918;42.564;23.164;2023-08-12T17:45:50;3.15;;;1.90;;
7747;SDS011;3918;42.564;23.164;2023-08-12T17:48:17;5.82;;;2.30;;
7747;SDS011;3918;42.564;23.164;2023-08-12T17:50:44;2.33;;;2.10;;
7747;SDS011;3918;42.564;23.164;2023-08-12T17:53:10;4.05;;;2.55;;
7747;SDS011;3918;42.564;23.164;2023-08-12T17:55:37;2.58;;;2.38;;
7747;SDS011;3918;42.564;23.164;2023-08-12T17:58:04;2.47;;;2.28;;
7747;SDS011;3918;42.564;23.164;2023-08-12T18:00:31;2.38;;;2.17;;
7747;SDS011;3918;42.564;23.164;2023-08-12T18:02:59;6.40;;;2.45;;
7747;SDS011;3918;42.564;23.164;2023-08-12T18:05:26;6.50;;;2.30;;
7747;SDS011;3918;42.564;23.164;2023-08-12T18:07:52;8.35;;;2.75;;
7747;SDS011;3918;42.564;23.164;2023-08-12T18:10:19;3.35;;;2.65;;
7747;SDS011;3918;42.564;23.164;2023-08-12T18:12:46;3.00;;;2.00;;
7747;SDS011;3918;42.564;23.164;2023-08-12T18:15:13;2.67;;;2.47;;
7747;SDS011;3918;42.564;23.164;2023-08-12T18:17:40;2.40;;;2.20;;
7747;SDS011;3918;42.564;23.164;2023-08-12T18:20:08;5.53;;;2.50;;
7747;SDS011;3918;42.564;23.164;2023-08-12T18:22:36;5.10;;;2.38;;
7747;SDS011;3918;42.564;23.164;2023-08-12T18:25:03;3.42;;;3.13;;
7747;SDS011;3918;42.564;23.164;2023-08-12T18:27:30;3.40;;;2.70;;
7747;SDS011;3918;42.564;23.164;2023-08-12T18:29:57;2.75;;;2.20;;
7747;SDS011;3918;42.564;23.164;2023-08-12T18:32:25;2.85;;;2.63;;
7747;SDS011;3918;42.564;23.164;2023-08-12T18:34:52;8.05;;;3.50;;
7747;SDS011;3918;42.564;23.164;2023-08-12T18:37:21;5.60;;;2.35;;
7747;SDS011;3918;42.564;23.164;2023-08-12T18:39:48;4.97;;;2.40;;
7747;SDS011;3918;42.564;23.164;2023-08-12T18:42:14;2.97;;;2.75;;
7747;SDS011;3918;42.564;23.164;2023-08-12T18:44:41;2.50;;;2.30;;
7747;SDS011;3918;42.564;23.164;2023-08-12T18:47:08;2.40;;;2.20;;
7747;SDS011;3918;42.564;23.164;2023-08-12T18:49:35;3.45;;;2.72;;
7747;SDS011;3918;42.564;23.164;2023-08-12T18:52:02;20.50;;;11.57;;
7747;SDS011;3918;42.564;23.164;2023-08-12T18:54:30;30.50;;;17.25;;
7747;SDS011;3918;42.564;23.164;2023-08-12T18:56:57;7.72;;;5.20;;
7747;SDS011;3918;42.564;23.164;2023-08-12T18:59:24;5.90;;;3.53;;
